createdAt,value
2018-01-28T00:02:10.905Z,14.98
2018-01-28T00:04:50.007Z,14.10
2018-01-28T00:07:19.060Z,14.00
2018-01-28T00:09:47.347Z,12.63
2018-01-28T00:12:15.780Z,15.57
2018-01-28T00:14:44.054Z,14.23
2018-01-28T00:17:12.341Z,13.95
2018-01-28T00:19:47.627Z,13.05
2018-01-28T00:22:16.666Z,14.00
2018-01-28T00:24:44.931Z,13.62
2018-01-28T00:27:13.975Z,15.25
2018-01-28T00:29:42.284Z,12.73
2018-01-28T00:32:10.571Z,12.60
2018-01-28T00:34:38.847Z,13.40
2018-01-28T00:37:07.128Z,13.68
2018-01-28T00:39:35.409Z,12.73
2018-01-28T00:42:05.651Z,12.18
2018-01-28T00:44:50.457Z,12.30
2018-01-28T00:47:25.519Z,12.27
2018-01-28T00:49:56.927Z,11.40
2018-01-28T00:52:25.219Z,12.63
2018-01-28T00:54:53.500Z,13.52
2018-01-28T00:57:21.823Z,12.32
2018-01-28T00:59:50.092Z,12.95
2018-01-28T01:02:18.969Z,11.73
2018-01-28T01:04:47.232Z,12.02
2018-01-28T01:07:17.519Z,12.50
2018-01-28T01:09:45.805Z,11.90
2018-01-28T01:12:14.093Z,11.88
2018-01-28T01:14:42.360Z,11.38
2018-01-28T01:17:10.644Z,11.23
2018-01-28T01:19:38.927Z,10.65
2018-01-28T01:22:28.179Z,11.45
2018-01-28T01:24:56.447Z,11.82
2018-01-28T01:27:24.738Z,12.50
2018-01-28T01:29:57.799Z,12.07
2018-01-28T01:32:31.127Z,11.98
2018-01-28T01:34:59.392Z,12.07
2018-01-28T01:37:32.010Z,11.98
2018-01-28T01:40:00.286Z,12.57
2018-01-28T01:42:36.639Z,12.77
2018-01-28T01:45:22.172Z,12.13
2018-01-28T01:47:50.460Z,13.27
2018-01-28T01:50:29.548Z,11.57
2018-01-28T01:53:08.700Z,11.88
2018-01-28T01:55:37.750Z,12.40
2018-01-28T01:58:06.040Z,13.98
2018-01-28T02:00:34.314Z,13.02
2018-01-28T02:06:02.864Z,12.82
2018-01-28T02:08:53.206Z,13.60
2018-01-28T02:11:21.490Z,13.88
2018-01-28T02:13:49.768Z,15.15
2018-01-28T02:16:18.061Z,13.88
2018-01-28T02:18:50.089Z,14.63
2018-01-28T02:21:18.388Z,15.02
2018-01-28T02:30:00.680Z,14.25
2018-01-28T02:32:28.957Z,13.85
2018-01-28T02:34:57.238Z,14.98
2018-01-28T02:37:25.525Z,14.00
2018-01-28T02:39:53.804Z,14.30
2018-01-28T02:42:22.864Z,15.98
2018-01-28T02:45:08.136Z,14.85
2018-01-28T02:47:36.420Z,14.57
2018-01-28T02:50:04.690Z,14.60
2018-01-28T02:52:44.115Z,15.10
2018-01-28T02:55:13.171Z,14.82
2018-01-28T02:57:58.371Z,15.35
2018-01-28T03:00:26.644Z,17.08
2018-01-28T03:03:27.484Z,17.60
2018-01-28T03:06:05.886Z,16.30
2018-01-28T03:08:41.940Z,18.23
2018-01-28T03:11:10.220Z,18.25
2018-01-28T03:13:38.498Z,20.75
2018-01-28T03:16:10.195Z,21.58
2018-01-28T03:18:49.132Z,19.52
2018-01-28T03:21:18.182Z,22.13
2018-01-28T03:23:47.380Z,21.25
2018-01-28T03:26:15.655Z,22.45
2018-01-28T03:29:03.164Z,22.52
2018-01-28T03:31:31.451Z,23.45
2018-01-28T03:33:59.725Z,20.52
2018-01-28T03:36:34.811Z,21.98
2018-01-28T03:39:03.852Z,22.37
2018-01-28T03:41:32.132Z,19.55
2018-01-28T03:44:00.395Z,20.08
2018-01-28T03:46:30.352Z,20.30
2018-01-28T03:49:01.189Z,21.90
2018-01-28T03:51:29.473Z,28.45
2018-01-28T03:53:58.696Z,28.20
2018-01-28T03:56:26.988Z,30.08
2018-01-28T03:58:55.260Z,25.62
2018-01-28T04:01:23.547Z,22.70
2018-01-28T04:03:51.824Z,26.27
2018-01-28T04:06:20.878Z,22.55
2018-01-28T04:08:49.144Z,45.25
2018-01-28T04:11:18.183Z,47.00
2018-01-28T04:13:46.463Z,63.78
2018-01-28T04:16:22.900Z,56.25
2018-01-28T04:18:51.939Z,79.03
2018-01-28T04:21:20.224Z,84.62
2018-01-28T04:23:54.938Z,87.43
2018-01-28T04:26:23.251Z,83.18
2018-01-28T04:28:51.549Z,101.47
2018-01-28T04:31:19.837Z,130.52
2018-01-28T04:33:48.124Z,99.50
2018-01-28T04:36:28.065Z,91.32
2018-01-28T04:39:06.364Z,79.85
2018-01-28T04:41:42.340Z,79.47
2018-01-28T04:44:11.379Z,64.50
2018-01-28T04:46:39.676Z,67.67
2018-01-28T04:49:07.953Z,65.55
2018-01-28T04:51:37.022Z,70.35
2018-01-28T04:54:06.052Z,73.78
2018-01-28T04:56:40.059Z,80.78
2018-01-28T04:59:09.895Z,65.20
2018-01-28T05:01:45.853Z,54.75
2018-01-28T05:04:16.905Z,80.22
2018-01-28T05:06:46.867Z,81.70
2018-01-28T05:09:15.148Z,85.93
2018-01-28T05:11:43.454Z,81.43
2018-01-28T05:14:11.747Z,71.60
2018-01-28T05:16:40.063Z,74.37
2018-01-28T05:19:08.356Z,72.15
2018-01-28T05:21:40.891Z,60.87
2018-01-28T05:24:24.375Z,81.18
2018-01-28T05:26:52.674Z,84.28
2018-01-28T05:29:20.951Z,73.15
2018-01-28T05:31:49.234Z,60.57
2018-01-28T05:34:17.512Z,65.05
2018-01-28T05:36:45.784Z,59.05
2018-01-28T05:39:14.081Z,48.10
2018-01-28T05:41:42.356Z,70.28
2018-01-28T05:44:10.649Z,63.80
2018-01-28T05:46:44.467Z,60.75
2018-01-28T05:49:16.846Z,52.10
2018-01-28T05:51:45.119Z,44.55
2018-01-28T05:54:14.177Z,59.93
2018-01-28T05:56:42.448Z,45.77
2018-01-28T05:59:10.724Z,43.30
2018-01-28T06:01:38.999Z,49.63
2018-01-28T06:04:07.295Z,46.87
2018-01-28T06:06:39.586Z,66.03
2018-01-28T06:09:07.876Z,55.93
2018-01-28T06:11:36.166Z,62.23
2018-01-28T06:14:04.460Z,46.58
2018-01-28T06:16:32.740Z,41.83
2018-01-28T06:19:04.409Z,39.27
2018-01-28T06:21:32.702Z,36.28
2018-01-28T06:24:01.006Z,49.10
2018-01-28T06:26:29.275Z,48.23
2018-01-28T06:29:02.077Z,38.67
2018-01-28T06:31:30.363Z,45.30
2018-01-28T06:33:58.649Z,28.47
2018-01-28T06:36:27.752Z,41.53
2018-01-28T06:38:56.980Z,34.63
2018-01-28T06:41:25.252Z,25.70
2018-01-28T06:43:55.491Z,39.17
2018-01-28T06:46:23.765Z,29.07
2018-01-28T06:48:53.000Z,43.20
2018-01-28T06:51:35.424Z,38.87
2018-01-28T06:54:03.699Z,28.33
2018-01-28T06:56:32.906Z,32.33
2018-01-28T06:59:07.647Z,35.07
2018-01-28T07:01:35.952Z,21.73
2018-01-28T07:04:04.231Z,32.83
2018-01-28T07:06:35.993Z,19.73
2018-01-28T07:09:04.272Z,32.40
2018-01-28T07:11:32.553Z,20.13
2018-01-28T07:14:01.589Z,31.87
2018-01-28T07:16:29.872Z,23.77
2018-01-28T07:18:59.319Z,28.60
2018-01-28T07:21:37.589Z,24.17
2018-01-28T07:24:06.636Z,26.63
2018-01-28T07:26:38.899Z,33.03
2018-01-28T07:29:07.171Z,29.20
2018-01-28T07:31:35.446Z,35.73
2018-01-28T07:34:04.489Z,29.20
2018-01-28T07:36:38.863Z,34.57
2018-01-28T07:39:07.139Z,31.63
2018-01-28T07:41:35.417Z,38.27
2018-01-28T07:44:03.721Z,29.93
2018-01-28T07:46:36.670Z,34.53
2018-01-28T07:49:05.212Z,37.90
2018-01-28T07:51:33.479Z,37.57
2018-01-28T07:54:01.770Z,18.37
2018-01-28T07:56:30.048Z,37.50
2018-01-28T07:58:58.329Z,30.50
2018-01-28T08:01:26.591Z,37.53
2018-01-28T08:03:55.640Z,32.23
2018-01-28T08:06:23.904Z,24.70
2018-01-28T08:08:53.088Z,33.47
2018-01-28T08:11:23.265Z,30.97
2018-01-28T08:14:01.974Z,39.07
2018-01-28T08:16:38.722Z,28.53
2018-01-28T08:19:07.011Z,37.37
2018-01-28T08:21:50.426Z,37.37
2018-01-28T08:24:18.975Z,30.63
2018-01-28T08:27:00.965Z,27.80
2018-01-28T08:29:29.240Z,25.40
2018-01-28T08:32:08.920Z,31.83
2018-01-28T08:34:38.004Z,36.90
2018-01-28T08:37:06.268Z,27.50
2018-01-28T08:39:51.160Z,20.87
2018-01-28T08:42:20.435Z,25.93
2018-01-28T08:45:00.887Z,18.13
2018-01-28T08:47:35.821Z,23.77
2018-01-28T08:50:04.104Z,27.53
2018-01-28T08:52:57.973Z,18.90
2018-01-28T08:55:26.259Z,17.03
2018-01-28T08:57:54.759Z,31.43
2018-01-28T09:03:24.175Z,27.13
2018-01-28T09:06:11.647Z,26.67
2018-01-28T09:08:40.312Z,34.47
2018-01-28T09:14:12.119Z,25.60
2018-01-28T09:16:40.387Z,37.87
2018-01-28T09:19:29.751Z,34.23
2018-01-28T09:24:58.977Z,48.43
2018-01-28T09:27:27.243Z,31.57
2018-01-28T09:29:55.527Z,41.83
2018-01-28T09:32:29.220Z,29.07
2018-01-28T09:35:14.953Z,39.33
2018-01-28T09:37:53.132Z,39.20
2018-01-28T09:40:22.179Z,35.10
2018-01-28T09:43:17.744Z,28.27
2018-01-28T09:46:15.772Z,44.57
2018-01-28T09:48:44.241Z,41.57
2018-01-28T09:51:24.812Z,54.93
2018-01-28T09:53:57.950Z,30.47
2018-01-28T09:56:40.388Z,63.57
2018-01-28T09:59:15.384Z,41.47
2018-01-28T10:01:44.419Z,39.10
2018-01-28T10:04:12.703Z,34.77
2018-01-28T10:06:41.308Z,30.67
2018-01-28T10:09:09.596Z,47.47
2018-01-28T10:11:48.909Z,28.63
2018-01-28T10:14:21.252Z,44.17
2018-01-28T10:16:49.536Z,49.10
2018-01-28T10:19:17.832Z,63.73
2018-01-28T10:21:46.121Z,52.90
2018-01-28T10:24:26.027Z,68.83
2018-01-28T10:26:58.738Z,55.97
2018-01-28T10:29:27.020Z,38.40
2018-01-28T10:31:55.300Z,49.53
2018-01-28T10:34:38.313Z,56.30
2018-01-28T10:37:06.585Z,61.90
2018-01-28T10:39:34.870Z,77.43
2018-01-28T10:42:03.161Z,62.73
2018-01-28T10:44:32.451Z,70.00
2018-01-28T10:47:00.719Z,59.77
2018-01-28T10:49:41.538Z,45.77
2018-01-28T10:52:27.833Z,56.57
2018-01-28T10:57:57.887Z,55.33
2018-01-28T11:03:26.452Z,58.97
2018-01-28T11:05:54.727Z,49.33
2018-01-28T11:08:29.987Z,54.03
2018-01-28T11:10:58.268Z,66.47
2018-01-28T11:13:26.545Z,46.90
2018-01-28T11:15:54.831Z,64.87
2018-01-28T11:18:33.332Z,78.57
2018-01-28T11:21:02.378Z,60.63
2018-01-28T11:23:43.236Z,75.33
2018-01-28T11:26:11.512Z,42.60
2018-01-28T11:32:00.488Z,61.30
2018-01-28T11:34:41.189Z,81.90
2018-01-28T11:37:10.222Z,71.17
2018-01-28T11:39:42.104Z,58.63
2018-01-28T11:42:31.034Z,61.60
2018-01-28T11:45:07.936Z,45.50
2018-01-28T11:47:38.924Z,57.13
2018-01-28T11:50:07.212Z,60.10
2018-01-28T11:52:35.488Z,62.17
2018-01-28T11:55:03.774Z,64.47
2018-01-28T11:57:57.780Z,44.67
2018-01-28T12:00:26.064Z,74.20
2018-01-28T12:02:54.340Z,56.83
2018-01-28T12:05:26.237Z,61.57
2018-01-28T12:07:54.529Z,58.80
2018-01-28T12:10:31.863Z,63.33
2018-01-28T12:13:07.849Z,65.47
2018-01-28T12:15:39.976Z,55.77
2018-01-28T12:18:11.780Z,66.63
2018-01-28T12:20:40.066Z,61.23
2018-01-28T12:23:08.347Z,64.07
2018-01-28T12:25:36.620Z,82.93
2018-01-28T12:28:17.697Z,58.50
2018-01-28T12:30:58.445Z,73.30
2018-01-28T12:33:31.375Z,82.83
2018-01-28T12:35:59.649Z,55.93
2018-01-28T12:38:28.886Z,47.27
2018-01-28T12:40:57.205Z,74.63
2018-01-28T12:43:25.480Z,78.80
2018-01-28T12:45:53.760Z,86.97
2018-01-28T12:48:48.972Z,78.23
2018-01-28T12:51:17.253Z,88.10
2018-01-28T12:54:03.897Z,70.40
2018-01-28T12:56:36.574Z,66.17
2018-01-28T12:59:04.857Z,91.20
2018-01-28T13:01:33.155Z,57.17
2018-01-28T13:04:03.369Z,72.53
2018-01-28T13:06:32.688Z,77.63
2018-01-28T13:09:00.984Z,77.73
2018-01-28T13:11:39.901Z,81.27
2018-01-28T13:14:08.179Z,30.53
2018-01-28T13:16:37.240Z,29.40
2018-01-28T13:19:05.514Z,39.57
2018-01-28T13:21:34.439Z,48.60
2018-01-28T13:24:02.696Z,40.37
2018-01-28T13:26:38.111Z,49.37
2018-01-28T13:29:07.148Z,34.40
2018-01-28T13:31:35.427Z,23.20
2018-01-28T13:34:08.222Z,23.10
2018-01-28T13:36:40.549Z,21.10
2018-01-28T13:39:10.749Z,22.33
2018-01-28T13:41:39.033Z,20.13
2018-01-28T13:44:07.301Z,19.70
2018-01-28T13:46:46.544Z,19.20
2018-01-28T13:49:18.646Z,18.33
2018-01-28T13:51:46.925Z,19.00
2018-01-28T13:54:21.365Z,19.17
2018-01-28T13:57:10.279Z,18.07
2018-01-28T13:59:39.557Z,19.23
2018-01-28T14:02:07.829Z,19.60
2018-01-28T14:04:36.843Z,19.07
2018-01-28T14:07:05.117Z,18.63
2018-01-28T14:09:34.143Z,19.53
2018-01-28T14:12:02.428Z,18.00
2018-01-28T14:14:30.692Z,16.97
2018-01-28T14:16:58.960Z,21.10
2018-01-28T14:19:27.253Z,17.67
2018-01-28T14:21:56.545Z,16.73
2018-01-28T14:24:24.821Z,18.33
2018-01-28T14:26:53.092Z,18.13
2018-01-28T14:29:24.369Z,18.13
2018-01-28T14:31:52.644Z,17.00
2018-01-28T14:34:22.869Z,17.77
2018-01-28T14:36:51.144Z,16.50
2018-01-28T14:39:19.412Z,17.30
2018-01-28T14:41:54.046Z,16.13
2018-01-28T14:44:24.315Z,16.77
2018-01-28T14:46:52.587Z,16.70
2018-01-28T14:49:21.641Z,16.53
2018-01-28T14:51:49.948Z,17.50
2018-01-28T14:54:18.201Z,17.27
2018-01-28T14:56:46.488Z,17.17
2018-01-28T14:59:14.771Z,17.37
2018-01-28T15:01:43.036Z,17.67
2018-01-28T15:04:12.072Z,17.40
2018-01-28T15:06:40.345Z,18.90
2018-01-28T15:09:08.604Z,17.50
2018-01-28T15:11:36.882Z,19.33
2018-01-28T15:14:05.143Z,18.13
2018-01-28T15:16:33.414Z,17.77
2018-01-28T15:19:02.642Z,18.87
2018-01-28T15:21:31.832Z,18.57
2018-01-28T15:24:00.102Z,19.10
2018-01-28T15:26:29.136Z,18.40
2018-01-28T15:28:57.396Z,18.10
2018-01-28T15:31:26.444Z,18.33
2018-01-28T15:33:54.708Z,19.20
2018-01-28T15:36:24.933Z,17.93
2018-01-28T15:38:53.192Z,18.17
2018-01-28T15:41:24.479Z,17.40
2018-01-28T15:43:53.681Z,18.10
2018-01-28T15:46:22.729Z,16.27
2018-01-28T15:48:50.982Z,18.17
2018-01-28T15:51:19.272Z,16.13
2018-01-28T15:53:48.481Z,15.53
2018-01-28T15:56:16.758Z,16.47
2018-01-28T15:58:46.948Z,15.60
2018-01-28T16:01:15.212Z,15.27
2018-01-28T16:03:43.486Z,15.90
2018-01-28T16:06:11.771Z,15.17
2018-01-28T16:08:40.065Z,16.43
2018-01-28T16:11:08.361Z,15.67
2018-01-28T16:13:36.629Z,15.33
2018-01-28T16:16:05.779Z,15.63
2018-01-28T16:18:34.041Z,15.33
2018-01-28T16:21:02.325Z,15.77
2018-01-28T16:23:30.584Z,16.70
2018-01-28T16:25:58.861Z,15.90
2018-01-28T16:28:27.116Z,15.90
2018-01-28T16:30:55.402Z,14.97
2018-01-28T16:33:23.727Z,14.10
2018-01-28T16:35:53.401Z,16.50
2018-01-28T16:38:21.664Z,16.00
2018-01-28T16:40:50.767Z,15.90
2018-01-28T16:43:19.797Z,14.77
2018-01-28T16:45:48.080Z,15.40
2018-01-28T16:48:16.341Z,15.30
2018-01-28T16:50:46.084Z,15.43
2018-01-28T16:53:14.494Z,14.90
2018-01-28T16:55:42.761Z,15.00
2018-01-28T16:58:11.805Z,15.17
2018-01-28T17:00:40.071Z,16.77
2018-01-28T17:03:08.356Z,14.93
2018-01-28T17:05:36.620Z,15.33
2018-01-28T17:08:05.675Z,13.43
2018-01-28T17:10:33.957Z,14.37
2018-01-28T17:13:03.005Z,13.97
2018-01-28T17:15:31.266Z,14.77
2018-01-28T17:17:59.550Z,14.00
2018-01-28T17:20:27.807Z,14.20
2018-01-28T17:22:56.086Z,14.63
2018-01-28T17:25:25.129Z,14.83
2018-01-28T17:27:53.406Z,13.40
2018-01-28T17:30:21.675Z,16.70
2018-01-28T17:32:49.951Z,14.07
2018-01-28T17:35:24.480Z,14.00
2018-01-28T17:37:53.528Z,15.30
2018-01-28T17:40:21.820Z,15.40
2018-01-28T17:42:50.092Z,15.30
2018-01-28T17:45:18.370Z,15.40
2018-01-28T17:47:46.988Z,15.37
2018-01-28T17:50:15.257Z,16.80
2018-01-28T17:52:43.532Z,15.63
2018-01-28T17:55:12.581Z,16.40
2018-01-28T17:57:40.870Z,15.50
2018-01-28T18:00:09.144Z,16.33
2018-01-28T18:02:37.425Z,16.47
2018-01-28T18:05:05.693Z,16.97
2018-01-28T18:07:34.741Z,16.17
2018-01-28T18:10:03.000Z,17.17
2018-01-28T18:12:31.280Z,17.17
2018-01-28T18:15:00.304Z,18.13
2018-01-28T18:17:28.585Z,18.80
2018-01-28T18:19:56.859Z,17.83
2018-01-28T18:22:26.625Z,18.07
2018-01-28T18:24:54.910Z,17.90
2018-01-28T18:27:23.181Z,16.70
2018-01-28T18:29:51.461Z,18.40
2018-01-28T18:32:19.736Z,17.83
2018-01-28T18:34:48.768Z,18.73
2018-01-28T18:37:17.044Z,17.50
2018-01-28T18:39:45.317Z,17.00
2018-01-28T18:42:14.360Z,18.20
2018-01-28T18:44:42.630Z,18.93
2018-01-28T18:47:10.909Z,17.23
2018-01-28T18:49:39.181Z,17.80
2018-01-28T18:52:08.234Z,18.10
2018-01-28T18:54:39.640Z,18.30
2018-01-28T18:57:07.911Z,17.20
2018-01-28T18:59:36.180Z,17.90
2018-01-28T19:02:04.461Z,19.00
2018-01-28T19:04:32.732Z,19.00
2018-01-28T19:07:01.025Z,17.13
2018-01-28T19:09:29.289Z,17.67
2018-01-28T19:11:58.329Z,17.20
2018-01-28T19:14:26.605Z,17.67
2018-01-28T19:16:54.893Z,19.27
2018-01-28T19:19:23.184Z,18.60
2018-01-28T19:21:51.455Z,19.40
2018-01-28T19:24:20.490Z,19.73
2018-01-28T19:26:48.771Z,20.07
2018-01-28T19:29:17.045Z,20.37
2018-01-28T19:31:45.339Z,21.97
2018-01-28T19:34:13.596Z,20.43
2018-01-28T19:36:41.874Z,22.70
2018-01-28T19:39:10.153Z,23.40
2018-01-28T19:41:38.440Z,24.67
2018-01-28T19:44:06.717Z,24.70
2018-01-28T19:46:34.986Z,25.80
2018-01-28T19:49:03.261Z,26.60
2018-01-28T19:51:31.519Z,28.77
2018-01-28T19:53:59.796Z,27.70
2018-01-28T19:56:28.064Z,31.67
2018-01-28T19:58:56.345Z,34.30
2018-01-28T20:01:24.609Z,30.67
2018-01-28T20:03:52.879Z,30.97
2018-01-28T20:06:21.147Z,35.60
2018-01-28T20:08:49.427Z,32.73
2018-01-28T20:11:17.697Z,32.83
2018-01-28T20:13:45.970Z,32.57
2018-01-28T20:16:14.234Z,34.50
2018-01-28T20:18:42.512Z,30.93
2018-01-28T20:21:10.771Z,33.93
2018-01-28T20:23:39.048Z,33.20
2018-01-28T20:26:07.304Z,31.73
2018-01-28T20:28:35.589Z,31.27
2018-01-28T20:31:04.649Z,33.50
2018-01-28T20:33:32.912Z,31.70
2018-01-28T20:36:01.207Z,31.53
2018-01-28T20:38:29.477Z,31.60
2018-01-28T20:40:57.752Z,34.50
2018-01-28T20:43:26.044Z,32.70
2018-01-28T20:45:54.312Z,30.50
2018-01-28T20:48:22.586Z,31.10
2018-01-28T20:50:51.642Z,28.23
2018-01-28T20:53:19.921Z,26.97
2018-01-28T20:55:48.193Z,27.00
2018-01-28T20:58:16.472Z,25.63
2018-01-28T21:00:44.737Z,28.30
2018-01-28T21:03:13.771Z,24.30
2018-01-28T21:05:42.844Z,29.57
2018-01-28T21:08:11.888Z,27.50
2018-01-28T21:10:40.135Z,29.00
2018-01-28T21:13:08.408Z,28.77
2018-01-28T21:15:36.672Z,30.83
2018-01-28T21:18:04.945Z,31.67
2018-01-28T21:20:33.204Z,29.97
2018-01-28T21:23:02.242Z,31.93
2018-01-28T21:25:30.517Z,34.90
2018-01-28T21:27:58.796Z,42.23
2018-01-28T21:30:27.062Z,35.07
2018-01-28T21:32:55.323Z,36.50
2018-01-28T21:35:24.527Z,46.00
2018-01-28T21:37:52.835Z,49.57
2018-01-28T21:40:21.099Z,31.53
2018-01-28T21:42:49.376Z,54.20
2018-01-28T21:45:18.536Z,38.70
2018-01-28T21:47:46.817Z,37.97
2018-01-28T21:50:16.068Z,38.00
2018-01-28T21:52:45.287Z,35.20
2018-01-28T21:55:13.556Z,29.93
2018-01-28T21:57:42.770Z,32.53
2018-01-28T22:00:11.033Z,27.03
2018-01-28T22:02:39.353Z,27.30
2018-01-28T22:05:07.616Z,24.10
2018-01-28T22:07:36.653Z,23.97
2018-01-28T22:10:21.985Z,21.10
2018-01-28T22:12:50.290Z,21.40
2018-01-28T22:15:18.576Z,19.17
2018-01-28T22:17:53.436Z,21.07
2018-01-28T22:20:29.704Z,27.10
2018-01-28T22:22:57.991Z,37.23
2018-01-28T22:25:26.275Z,36.43
2018-01-28T22:27:54.572Z,39.10
2018-01-28T22:30:22.833Z,23.13
2018-01-28T22:32:51.096Z,32.47
2018-01-28T22:35:19.367Z,44.70
2018-01-28T22:37:47.672Z,60.07
2018-01-28T22:40:15.989Z,72.40
2018-01-28T22:42:44.284Z,102.43
2018-01-28T22:45:12.587Z,89.13
2018-01-28T22:47:40.875Z,57.63
2018-01-28T22:50:19.008Z,56.90
2018-01-28T22:52:48.079Z,50.43
2018-01-28T22:55:16.344Z,61.40
2018-01-28T22:57:44.620Z,75.57
2018-01-28T23:00:12.908Z,83.63
2018-01-28T23:02:43.141Z,78.43
2018-01-28T23:05:11.433Z,60.63
2018-01-28T23:07:39.704Z,80.40
2018-01-28T23:10:08.751Z,60.47
2018-01-28T23:12:37.025Z,98.10
2018-01-28T23:15:05.307Z,88.93
2018-01-28T23:17:51.948Z,80.27
2018-01-28T23:23:31.489Z,85.30
2018-01-28T23:26:00.526Z,79.37
2018-01-28T23:28:50.065Z,93.00
2018-01-28T23:31:18.358Z,80.17
2018-01-28T23:33:47.425Z,78.87
2018-01-28T23:36:34.688Z,78.00
2018-01-28T23:39:02.976Z,61.03
2018-01-28T23:41:43.612Z,58.87
2018-01-28T23:44:17.572Z,80.47
2018-01-28T23:46:45.892Z,63.90
2018-01-28T23:49:14.947Z,64.77
2018-01-28T23:51:43.221Z,71.73
2018-01-28T23:54:11.523Z,70.97
2018-01-28T23:56:39.800Z,68.47
2018-01-28T23:59:09.019Z,84.50
